sensor_id;sensor_type;location;lat;lon;timestamp;P1;durP1;ratioP1;P2;durP2;ratioP2
55455;SDS011;63021;52.836;6.376;2023-07-20T00:01:39;2.20;;;1.92;;
55455;SDS011;63021;52.836;6.376;2023-07-20T00:04:09;1.80;;;1.70;;
55455;SDS011;63021;52.836;6.376;2023-07-20T00:06:35;7.57;;;2.45;;
55455;SDS011;63021;52.836;6.376;2023-07-20T00:09:01;3.13;;;1.90;;
55455;SDS011;63021;52.836;6.376;2023-07-20T00:11:27;3.45;;;2.35;;
55455;SDS011;63021;52.836;6.376;2023-07-20T00:13:52;3.08;;;2.20;;
55455;SDS011;63021;52.836;6.376;2023-07-20T00:16:18;4.93;;;2.10;;
55455;SDS011;63021;52.836;6.376;2023-07-20T00:18:43;2.80;;;2.20;;
55455;SDS011;63021;52.836;6.376;2023-07-20T00:21:09;2.70;;;2.50;;
55455;SDS011;63021;52.836;6.376;2023-07-20T00:23:34;2.35;;;2.15;;
55455;SDS011;63021;52.836;6.376;2023-07-20T00:26:00;2.92;;;2.72;;
55455;SDS011;63021;52.836;6.376;2023-07-20T00:28:25;2.83;;;2.63;;
55455;SDS011;63021;52.836;6.376;2023-07-20T00:30:51;2.47;;;2.30;;
55455;SDS011;63021;52.836;6.376;2023-07-20T00:33:17;6.80;;;2.90;;
55455;SDS011;63021;52.836;6.376;2023-07-20T00:35:43;2.45;;;2.25;;
55455;SDS011;63021;52.836;6.376;2023-07-20T00:38:09;3.13;;;2.92;;
55455;SDS011;63021;52.836;6.376;2023-07-20T00:40:37;3.20;;;3.00;;
55455;SDS011;63021;52.836;6.376;2023-07-20T00:43:04;2.90;;;2.70;;
55455;SDS011;63021;52.836;6.376;2023-07-20T00:45:29;3.17;;;2.78;;
55455;SDS011;63021;52.836;6.376;2023-07-20T00:47:56;3.00;;;2.72;;
55455;SDS011;63021;52.836;6.376;2023-07-20T00:50:23;3.15;;;2.90;;
55455;SDS011;63021;52.836;6.376;2023-07-20T00:52:49;3.30;;;2.95;;
55455;SDS011;63021;52.836;6.376;2023-07-20T00:55:15;3.42;;;3.13;;
55455;SDS011;63021;52.836;6.376;2023-07-20T00:57:40;4.25;;;3.13;;
55455;SDS011;63021;52.836;6.376;2023-07-20T01:00:07;3.50;;;3.20;;
55455;SDS011;63021;52.836;6.376;2023-07-20T01:02:32;3.55;;;2.97;;
55455;SDS011;63021;52.836;6.376;2023-07-20T01:04:58;5.00;;;3.67;;
55455;SDS011;63021;52.836;6.376;2023-07-20T01:07:25;3.45;;;3.22;;
55455;SDS011;63021;52.836;6.376;2023-07-20T01:12:43;4.00;;;3.70;;
55455;SDS011;63021;52.836;6.376;2023-07-20T01:15:12;4.10;;;2.83;;
55455;SDS011;63021;52.836;6.376;2023-07-20T01:17:38;4.00;;;3.10;;
55455;SDS011;63021;52.836;6.376;2023-07-20T01:20:05;6.10;;;2.78;;
55455;SDS011;63021;52.836;6.376;2023-07-20T01:33:47;4.10;;;3.40;;
55455;SDS011;63021;52.836;6.376;2023-07-20T01:36:13;3.28;;;2.90;;
55455;SDS011;63021;52.836;6.376;2023-07-20T01:38:41;4.18;;;3.78;;
55455;SDS011;63021;52.836;6.376;2023-07-20T01:41:07;4.65;;;4.13;;
55455;SDS011;63021;52.836;6.376;2023-07-20T01:43:33;4.03;;;3.72;;
55455;SDS011;63021;52.836;6.376;2023-07-20T01:45:59;3.35;;;3.15;;
55455;SDS011;63021;52.836;6.376;2023-07-20T01:48:24;3.47;;;3.25;;
55455;SDS011;63021;52.836;6.376;2023-07-20T01:50:50;3.17;;;2.97;;
55455;SDS011;63021;52.836;6.376;2023-07-20T01:53:15;4.03;;;3.60;;
55455;SDS011;63021;52.836;6.376;2023-07-20T01:55:40;4.00;;;3.53;;
55455;SDS011;63021;52.836;6.376;2023-07-20T01:58:09;4.60;;;3.80;;
55455;SDS011;63021;52.836;6.376;2023-07-20T02:00:36;6.78;;;3.88;;
55455;SDS011;63021;52.836;6.376;2023-07-20T02:03:02;3.90;;;3.60;;
55455;SDS011;63021;52.836;6.376;2023-07-20T02:05:27;4.15;;;3.83;;
55455;SDS011;63021;52.836;6.376;2023-07-20T02:07:52;4.25;;;3.95;;
55455;SDS011;63021;52.836;6.376;2023-07-20T02:10:18;4.78;;;3.95;;
55455;SDS011;63021;52.836;6.376;2023-07-20T02:12:43;4.68;;;3.33;;
55455;SDS011;63021;52.836;6.376;2023-07-20T02:15:09;3.75;;;3.45;;
55455;SDS011;63021;52.836;6.376;2023-07-20T02:17:35;4.93;;;3.92;;
55455;SDS011;63021;52.836;6.376;2023-07-20T02:20:00;4.10;;;3.42;;
55455;SDS011;63021;52.836;6.376;2023-07-20T02:22:25;3.83;;;3.53;;
55455;SDS011;63021;52.836;6.376;2023-07-20T02:24:51;4.50;;;4.10;;
55455;SDS011;63021;52.836;6.376;2023-07-20T02:27:16;3.65;;;3.35;;
55455;SDS011;63021;52.836;6.376;2023-07-20T02:29:42;4.43;;;4.05;;
55455;SDS011;63021;52.836;6.376;2023-07-20T02:32:08;4.50;;;4.10;;
55455;SDS011;63021;52.836;6.376;2023-07-20T02:34:34;6.03;;;3.78;;
55455;SDS011;63021;52.836;6.376;2023-07-20T02:37:00;3.42;;;3.13;;
55455;SDS011;63021;52.836;6.376;2023-07-20T02:39:29;3.33;;;3.13;;
55455;SDS011;63021;52.836;6.376;2023-07-20T02:41:54;5.78;;;4.03;;
55455;SDS011;63021;52.836;6.376;2023-07-20T02:44:20;3.95;;;3.65;;
55455;SDS011;63021;52.836;6.376;2023-07-20T02:46:46;5.15;;;4.65;;
55455;SDS011;63021;52.836;6.376;2023-07-20T02:49:11;4.85;;;4.45;;
55455;SDS011;63021;52.836;6.376;2023-07-20T02:51:37;4.32;;;3.92;;
55455;SDS011;63021;52.836;6.376;2023-07-20T02:54:02;4.95;;;4.50;;
55455;SDS011;63021;52.836;6.376;2023-07-20T02:56:28;4.43;;;4.03;;
55455;SDS011;63021;52.836;6.376;2023-07-20T02:58:54;4.25;;;3.88;;
55455;SDS011;63021;52.836;6.376;2023-07-20T03:01:19;6.25;;;4.63;;
55455;SDS011;63021;52.836;6.376;2023-07-20T03:03:45;4.68;;;4.28;;
55455;SDS011;63021;52.836;6.376;2023-07-20T03:06:13;4.68;;;4.28;;
55455;SDS011;63021;52.836;6.376;2023-07-20T03:08:40;4.18;;;3.85;;
55455;SDS011;63021;52.836;6.376;2023-07-20T03:11:07;4.38;;;4.07;;
55455;SDS011;63021;52.836;6.376;2023-07-20T03:13:32;4.93;;;4.53;;
55455;SDS011;63021;52.836;6.376;2023-07-20T03:15:58;7.13;;;4.25;;
55455;SDS011;63021;52.836;6.376;2023-07-20T03:18:23;4.75;;;4.35;;
55455;SDS011;63021;52.836;6.376;2023-07-20T03:20:49;5.03;;;4.07;;
55455;SDS011;63021;52.836;6.376;2023-07-20T03:23:14;4.15;;;3.55;;
55455;SDS011;63021;52.836;6.376;2023-07-20T03:25:40;4.25;;;3.85;;
55455;SDS011;63021;52.836;6.376;2023-07-20T03:28:06;4.15;;;3.75;;
55455;SDS011;63021;52.836;6.376;2023-07-20T03:30:32;4.15;;;3.70;;
55455;SDS011;63021;52.836;6.376;2023-07-20T03:32:58;3.67;;;3.38;;
55455;SDS011;63021;52.836;6.376;2023-07-20T03:35:23;4.03;;;3.65;;
55455;SDS011;63021;52.836;6.376;2023-07-20T03:37:48;4.72;;;4.28;;
55455;SDS011;63021;52.836;6.376;2023-07-20T03:40:14;4.25;;;3.47;;
55455;SDS011;63021;52.836;6.376;2023-07-20T03:42:40;3.30;;;3.10;;
55455;SDS011;63021;52.836;6.376;2023-07-20T03:45:06;3.50;;;3.30;;
55455;SDS011;63021;52.836;6.376;2023-07-20T03:47:32;3.90;;;3.60;;
55455;SDS011;63021;52.836;6.376;2023-07-20T03:49:58;3.67;;;3.35;;
55455;SDS011;63021;52.836;6.376;2023-07-20T03:52:23;4.13;;;3.70;;
55455;SDS011;63021;52.836;6.376;2023-07-20T03:54:49;4.00;;;3.65;;
55455;SDS011;63021;52.836;6.376;2023-07-20T03:57:16;4.88;;;3.47;;
55455;SDS011;63021;52.836;6.376;2023-07-20T03:59:44;3.35;;;3.05;;
55455;SDS011;63021;52.836;6.376;2023-07-20T04:02:10;3.88;;;3.58;;
55455;SDS011;63021;52.836;6.376;2023-07-20T04:04:35;5.45;;;3.55;;
55455;SDS011;63021;52.836;6.376;2023-07-20T04:07:01;3.83;;;3.53;;
55455;SDS011;63021;52.836;6.376;2023-07-20T04:09:26;3.92;;;3.55;;
55455;SDS011;63021;52.836;6.376;2023-07-20T04:11:51;3.80;;;3.28;;
55455;SDS011;63021;52.836;6.376;2023-07-20T04:14:17;3.28;;;2.97;;
55455;SDS011;63021;52.836;6.376;2023-07-20T04:16:42;3.65;;;3.35;;
55455;SDS011;63021;52.836;6.376;2023-07-20T04:19:08;3.22;;;3.03;;
55455;SDS011;63021;52.836;6.376;2023-07-20T04:21:39;3.72;;;3.42;;
55455;SDS011;63021;52.836;6.376;2023-07-20T04:24:04;4.15;;;3.38;;
55455;SDS011;63021;52.836;6.376;2023-07-20T04:26:30;3.20;;;3.00;;
55455;SDS011;63021;52.836;6.376;2023-07-20T04:28:55;3.75;;;3.33;;
55455;SDS011;63021;52.836;6.376;2023-07-20T04:31:21;3.92;;;3.50;;
55455;SDS011;63021;52.836;6.376;2023-07-20T04:33:46;3.85;;;3.55;;
55455;SDS011;63021;52.836;6.376;2023-07-20T04:36:12;4.00;;;3.60;;
55455;SDS011;63021;52.836;6.376;2023-07-20T04:38:39;3.70;;;3.20;;
55455;SDS011;63021;52.836;6.376;2023-07-20T04:41:05;4.22;;;3.90;;
55455;SDS011;63021;52.836;6.376;2023-07-20T04:43:30;3.60;;;3.30;;
55455;SDS011;63021;52.836;6.376;2023-07-20T04:45:55;4.10;;;3.70;;
55455;SDS011;63021;52.836;6.376;2023-07-20T04:48:21;3.35;;;3.15;;
55455;SDS011;63021;52.836;6.376;2023-07-20T04:50:46;4.25;;;3.33;;
55455;SDS011;63021;52.836;6.376;2023-07-20T04:53:12;3.95;;;3.60;;
55455;SDS011;63021;52.836;6.376;2023-07-20T04:55:38;4.20;;;3.78;;
55455;SDS011;63021;52.836;6.376;2023-07-20T04:58:04;4.43;;;3.40;;
55455;SDS011;63021;52.836;6.376;2023-07-20T05:00:31;4.22;;;3.58;;
55455;SDS011;63021;52.836;6.376;2023-07-20T05:02:58;5.90;;;4.18;;
55455;SDS011;63021;52.836;6.376;2023-07-20T05:05:23;3.97;;;3.60;;
55455;SDS011;63021;52.836;6.376;2023-07-20T05:07:48;4.30;;;4.00;;
55455;SDS011;63021;52.836;6.376;2023-07-20T05:10:14;4.72;;;3.88;;
55455;SDS011;63021;52.836;6.376;2023-07-20T05:12:39;3.47;;;3.17;;
55455;SDS011;63021;52.836;6.376;2023-07-20T05:15:05;4.78;;;4.22;;
55455;SDS011;63021;52.836;6.376;2023-07-20T05:17:30;3.95;;;3.42;;
55455;SDS011;63021;52.836;6.376;2023-07-20T05:19:56;4.35;;;3.55;;
55455;SDS011;63021;52.836;6.376;2023-07-20T05:22:21;4.95;;;4.30;;
55455;SDS011;63021;52.836;6.376;2023-07-20T05:24:47;5.20;;;3.63;;
55455;SDS011;63021;52.836;6.376;2023-07-20T05:27:12;4.95;;;3.42;;
55455;SDS011;63021;52.836;6.376;2023-07-20T05:29:37;3.67;;;3.38;;
55455;SDS011;63021;52.836;6.376;2023-07-20T05:32:08;3.33;;;3.13;;
55455;SDS011;63021;52.836;6.376;2023-07-20T05:34:34;4.03;;;3.30;;
55455;SDS011;63021;52.836;6.376;2023-07-20T05:37:00;3.83;;;3.45;;
55455;SDS011;63021;52.836;6.376;2023-07-20T05:39:25;6.47;;;3.40;;
55455;SDS011;63021;52.836;6.376;2023-07-20T05:41:53;3.47;;;3.28;;
55455;SDS011;63021;52.836;6.376;2023-07-20T05:44:18;7.10;;;3.95;;
55455;SDS011;63021;52.836;6.376;2023-07-20T05:46:44;2.92;;;2.72;;
55455;SDS011;63021;52.836;6.376;2023-07-20T05:49:09;7.63;;;2.70;;
55455;SDS011;63021;52.836;6.376;2023-07-20T05:51:35;2.78;;;2.55;;
55455;SDS011;63021;52.836;6.376;2023-07-20T05:54:01;3.08;;;2.55;;
55455;SDS011;63021;52.836;6.376;2023-07-20T05:56:26;4.35;;;3.13;;
55455;SDS011;63021;52.836;6.376;2023-07-20T05:58:52;2.85;;;2.65;;
55455;SDS011;63021;52.836;6.376;2023-07-20T06:01:17;3.55;;;2.50;;
55455;SDS011;63021;52.836;6.376;2023-07-20T06:03:44;2.42;;;2.25;;
55455;SDS011;63021;52.836;6.376;2023-07-20T06:06:09;2.20;;;2.10;;
55455;SDS011;63021;52.836;6.376;2023-07-20T06:08:36;3.15;;;2.28;;
55455;SDS011;63021;52.836;6.376;2023-07-20T06:11:02;2.17;;;1.95;;
55455;SDS011;63021;52.836;6.376;2023-07-20T06:13:27;3.20;;;2.10;;
55455;SDS011;63021;52.836;6.376;2023-07-20T06:15:53;1.92;;;1.70;;
55455;SDS011;63021;52.836;6.376;2023-07-20T06:18:18;2.45;;;2.20;;
55455;SDS011;63021;52.836;6.376;2023-07-20T06:20:52;2.92;;;1.60;;
55455;SDS011;63021;52.836;6.376;2023-07-20T06:23:18;1.40;;;1.30;;
55455;SDS011;63021;52.836;6.376;2023-07-20T06:25:44;1.95;;;1.67;;
55455;SDS011;63021;52.836;6.376;2023-07-20T06:28:10;1.50;;;1.40;;
55455;SDS011;63021;52.836;6.376;2023-07-20T06:30:35;4.68;;;1.60;;
55455;SDS011;63021;52.836;6.376;2023-07-20T06:33:01;2.78;;;1.55;;
55455;SDS011;63021;52.836;6.376;2023-07-20T06:35:26;2.30;;;1.38;;
55455;SDS011;63021;52.836;6.376;2023-07-20T06:37:52;1.63;;;1.50;;
55455;SDS011;63021;52.836;6.376;2023-07-20T06:40:17;2.28;;;1.25;;
55455;SDS011;63021;52.836;6.376;2023-07-20T06:42:43;1.98;;;1.33;;
55455;SDS011;63021;52.836;6.376;2023-07-20T06:45:08;2.85;;;1.60;;
55455;SDS011;63021;52.836;6.376;2023-07-20T06:47:35;1.65;;;1.15;;
55455;SDS011;63021;52.836;6.376;2023-07-20T06:50:00;1.60;;;1.10;;
55455;SDS011;63021;52.836;6.376;2023-07-20T06:52:25;1.42;;;1.02;;
55455;SDS011;63021;52.836;6.376;2023-07-20T06:54:51;4.53;;;1.30;;
55455;SDS011;63021;52.836;6.376;2023-07-20T06:57:16;6.13;;;1.35;;
55455;SDS011;63021;52.836;6.376;2023-07-20T06:59:42;2.40;;;1.05;;
55455;SDS011;63021;52.836;6.376;2023-07-20T07:02:07;4.50;;;2.35;;
55455;SDS011;63021;52.836;6.376;2023-07-20T07:04:33;2.50;;;1.05;;
55455;SDS011;63021;52.836;6.376;2023-07-20T07:06:59;5.68;;;1.10;;
55455;SDS011;63021;52.836;6.376;2023-07-20T07:09:25;1.83;;;0.85;;
55455;SDS011;63021;52.836;6.376;2023-07-20T07:11:50;1.35;;;1.15;;
55455;SDS011;63021;52.836;6.376;2023-07-20T07:14:15;4.18;;;1.10;;
55455;SDS011;63021;52.836;6.376;2023-07-20T07:16:41;3.47;;;0.95;;
55455;SDS011;63021;52.836;6.376;2023-07-20T07:19:07;1.52;;;0.80;;
55455;SDS011;63021;52.836;6.376;2023-07-20T07:21:33;6.22;;;0.90;;
55455;SDS011;63021;52.836;6.376;2023-07-20T07:23:58;2.90;;;1.00;;
55455;SDS011;63021;52.836;6.376;2023-07-20T07:26:25;4.28;;;1.00;;
55455;SDS011;63021;52.836;6.376;2023-07-20T07:28:50;1.80;;;1.30;;
55455;SDS011;63021;52.836;6.376;2023-07-20T07:31:16;3.67;;;1.10;;
55455;SDS011;63021;52.836;6.376;2023-07-20T07:33:41;2.05;;;0.98;;
55455;SDS011;63021;52.836;6.376;2023-07-20T07:36:07;1.70;;;1.13;;
55455;SDS011;63021;52.836;6.376;2023-07-20T07:38:32;2.90;;;1.00;;
55455;SDS011;63021;52.836;6.376;2023-07-20T07:40:58;2.28;;;1.10;;
55455;SDS011;63021;52.836;6.376;2023-07-20T07:43:24;3.90;;;1.10;;
55455;SDS011;63021;52.836;6.376;2023-07-20T07:45:49;3.35;;;0.90;;
55455;SDS011;63021;52.836;6.376;2023-07-20T07:48:15;3.30;;;0.80;;
55455;SDS011;63021;52.836;6.376;2023-07-20T07:50:40;3.90;;;0.90;;
55455;SDS011;63021;52.836;6.376;2023-07-20T07:53:07;2.80;;;1.00;;
55455;SDS011;63021;52.836;6.376;2023-07-20T07:55:33;1.70;;;0.98;;
55455;SDS011;63021;52.836;6.376;2023-07-20T07:58:00;2.10;;;1.02;;
55455;SDS011;63021;52.836;6.376;2023-07-20T08:00:25;2.40;;;1.10;;
55455;SDS011;63021;52.836;6.376;2023-07-20T08:02:51;1.70;;;0.60;;
55455;SDS011;63021;52.836;6.376;2023-07-20T08:05:16;5.53;;;0.90;;
55455;SDS011;63021;52.836;6.376;2023-07-20T08:07:42;1.95;;;0.90;;
55455;SDS011;63021;52.836;6.376;2023-07-20T08:10:08;2.03;;;0.82;;
55455;SDS011;63021;52.836;6.376;2023-07-20T08:12:34;3.00;;;0.82;;
55455;SDS011;63021;52.836;6.376;2023-07-20T08:14:59;4.88;;;0.98;;
55455;SDS011;63021;52.836;6.376;2023-07-20T08:17:25;2.83;;;1.20;;
55455;SDS011;63021;52.836;6.376;2023-07-20T08:19:50;1.58;;;0.80;;
55455;SDS011;63021;52.836;6.376;2023-07-20T08:22:16;2.28;;;0.82;;
55455;SDS011;63021;52.836;6.376;2023-07-20T08:24:41;1.92;;;0.75;;
55455;SDS011;63021;52.836;6.376;2023-07-20T08:27:08;1.67;;;0.80;;
55455;SDS011;63021;52.836;6.376;2023-07-20T08:29:35;2.90;;;0.95;;
55455;SDS011;63021;52.836;6.376;2023-07-20T08:32:00;2.47;;;1.08;;
55455;SDS011;63021;52.836;6.376;2023-07-20T08:34:26;3.65;;;1.13;;
55455;SDS011;63021;52.836;6.376;2023-07-20T08:36:52;3.00;;;1.10;;
55455;SDS011;63021;52.836;6.376;2023-07-20T08:39:17;4.35;;;1.02;;
55455;SDS011;63021;52.836;6.376;2023-07-20T08:41:43;1.33;;;0.80;;
55455;SDS011;63021;52.836;6.376;2023-07-20T08:44:08;1.83;;;0.73;;
55455;SDS011;63021;52.836;6.376;2023-07-20T08:46:35;6.25;;;1.08;;
55455;SDS011;63021;52.836;6.376;2023-07-20T08:49:03;3.50;;;0.95;;
55455;SDS011;63021;52.836;6.376;2023-07-20T08:51:29;2.42;;;1.05;;
55455;SDS011;63021;52.836;6.376;2023-07-20T08:53:55;3.20;;;1.05;;
55455;SDS011;63021;52.836;6.376;2023-07-20T08:56:21;2.13;;;0.70;;
55455;SDS011;63021;52.836;6.376;2023-07-20T08:58:50;0.95;;;0.73;;
55455;SDS011;63021;52.836;6.376;2023-07-20T09:01:18;3.35;;;1.23;;
55455;SDS011;63021;52.836;6.376;2023-07-20T09:03:44;2.45;;;0.80;;
55455;SDS011;63021;52.836;6.376;2023-07-20T09:06:11;1.92;;;0.90;;
55455;SDS011;63021;52.836;6.376;2023-07-20T09:08:38;3.35;;;0.80;;
55455;SDS011;63021;52.836;6.376;2023-07-20T09:11:04;5.38;;;1.08;;
55455;SDS011;63021;52.836;6.376;2023-07-20T09:13:31;1.85;;;0.90;;
55455;SDS011;63021;52.836;6.376;2023-07-20T09:15:57;1.27;;;1.10;;
55455;SDS011;63021;52.836;6.376;2023-07-20T09:18:24;1.92;;;0.60;;
55455;SDS011;63021;52.836;6.376;2023-07-20T09:20:57;1.08;;;0.80;;
55455;SDS011;63021;52.836;6.376;2023-07-20T09:23:34;1.98;;;1.50;;
55455;SDS011;63021;52.836;6.376;2023-07-20T09:26:09;1.10;;;1.00;;
55455;SDS011;63021;52.836;6.376;2023-07-20T09:28:54;0.70;;;0.70;;
55455;SDS011;63021;52.836;6.376;2023-07-20T09:31:21;1.08;;;0.93;;
55455;SDS011;63021;52.836;6.376;2023-07-20T09:33:48;1.45;;;0.70;;
55455;SDS011;63021;52.836;6.376;2023-07-20T09:36:14;1.08;;;0.65;;
55455;SDS011;63021;52.836;6.376;2023-07-20T09:38:42;2.83;;;0.65;;
55455;SDS011;63021;52.836;6.376;2023-07-20T09:41:13;4.57;;;0.70;;
55455;SDS011;63021;52.836;6.376;2023-07-20T09:43:40;2.10;;;0.85;;
55455;SDS011;63021;52.836;6.376;2023-07-20T09:46:06;2.08;;;1.33;;
55455;SDS011;63021;52.836;6.376;2023-07-20T09:48:32;3.47;;;1.35;;
55455;SDS011;63021;52.836;6.376;2023-07-20T09:50:57;1.00;;;0.80;;
55455;SDS011;63021;52.836;6.376;2023-07-20T09:53:24;1.48;;;0.73;;
55455;SDS011;63021;52.836;6.376;2023-07-20T09:55:51;1.63;;;0.73;;
55455;SDS011;63021;52.836;6.376;2023-07-20T09:58:18;1.73;;;0.82;;
55455;SDS011;63021;52.836;6.376;2023-07-20T10:00:44;3.55;;;0.60;;
55455;SDS011;63021;52.836;6.376;2023-07-20T10:03:13;1.73;;;0.77;;
55455;SDS011;63021;52.836;6.376;2023-07-20T10:05:43;0.60;;;0.60;;
55455;SDS011;63021;52.836;6.376;2023-07-20T10:08:14;0.63;;;0.52;;
55455;SDS011;63021;52.836;6.376;2023-07-20T10:10:41;1.75;;;0.70;;
55455;SDS011;63021;52.836;6.376;2023-07-20T10:13:16;2.17;;;0.80;;
55455;SDS011;63021;52.836;6.376;2023-07-20T10:15:46;0.68;;;0.68;;
55455;SDS011;63021;52.836;6.376;2023-07-20T10:18:59;1.30;;;0.85;;
55455;SDS011;63021;52.836;6.376;2023-07-20T10:21:31;1.08;;;0.75;;
55455;SDS011;63021;52.836;6.376;2023-07-20T10:24:00;1.33;;;1.17;;
55455;SDS011;63021;52.836;6.376;2023-07-20T10:26:26;1.55;;;0.80;;
55455;SDS011;63021;52.836;6.376;2023-07-20T10:28:51;1.48;;;0.77;;
55455;SDS011;63021;52.836;6.376;2023-07-20T10:31:18;3.47;;;0.88;;
55455;SDS011;63021;52.836;6.376;2023-07-20T10:33:44;3.08;;;1.08;;
55455;SDS011;63021;52.836;6.376;2023-07-20T10:36:11;2.08;;;1.02;;
55455;SDS011;63021;52.836;6.376;2023-07-20T10:41:18;0.82;;;0.60;;
55455;SDS011;63021;52.836;6.376;2023-07-20T10:46:11;2.15;;;0.80;;
55455;SDS011;63021;52.836;6.376;2023-07-20T10:48:58;0.90;;;0.90;;
55455;SDS011;63021;52.836;6.376;2023-07-20T10:51:27;2.35;;;0.70;;
55455;SDS011;63021;52.836;6.376;2023-07-20T10:53:56;5.15;;;1.08;;
55455;SDS011;63021;52.836;6.376;2023-07-20T10:56:25;0.82;;;0.80;;
55455;SDS011;63021;52.836;6.376;2023-07-20T10:58:59;2.90;;;0.90;;
55455;SDS011;63021;52.836;6.376;2023-07-20T11:01:35;1.00;;;0.80;;
55455;SDS011;63021;52.836;6.376;2023-07-20T11:04:02;1.25;;;0.80;;
55455;SDS011;63021;52.836;6.376;2023-07-20T11:06:33;4.05;;;1.20;;
55455;SDS011;63021;52.836;6.376;2023-07-20T11:11:39;1.05;;;0.90;;
55455;SDS011;63021;52.836;6.376;2023-07-20T11:14:07;2.95;;;1.08;;
55455;SDS011;63021;52.836;6.376;2023-07-20T11:16:34;1.17;;;0.88;;
55455;SDS011;63021;52.836;6.376;2023-07-20T11:19:14;3.55;;;1.30;;
55455;SDS011;63021;52.836;6.376;2023-07-20T11:21:44;1.65;;;1.00;;
55455;SDS011;63021;52.836;6.376;2023-07-20T11:24:14;3.55;;;0.88;;
55455;SDS011;63021;52.836;6.376;2023-07-20T11:26:43;6.10;;;1.00;;
55455;SDS011;63021;52.836;6.376;2023-07-20T11:29:09;1.38;;;1.02;;
55455;SDS011;63021;52.836;6.376;2023-07-20T11:31:35;2.33;;;0.93;;
55455;SDS011;63021;52.836;6.376;2023-07-20T11:34:09;3.27;;;0.80;;
55455;SDS011;63021;52.836;6.376;2023-07-20T11:36:43;1.05;;;0.90;;
55455;SDS011;63021;52.836;6.376;2023-07-20T11:39:09;1.98;;;1.00;;
55455;SDS011;63021;52.836;6.376;2023-07-20T11:41:36;2.47;;;0.88;;
55455;SDS011;63021;52.836;6.376;2023-07-20T11:44:03;0.88;;;0.65;;
55455;SDS011;63021;52.836;6.376;2023-07-20T11:46:31;1.15;;;0.82;;
55455;SDS011;63021;52.836;6.376;2023-07-20T11:48:57;1.10;;;0.70;;
55455;SDS011;63021;52.836;6.376;2023-07-20T11:51:24;2.53;;;0.90;;
55455;SDS011;63021;52.836;6.376;2023-07-20T11:53:51;2.67;;;1.48;;
55455;SDS011;63021;52.836;6.376;2023-07-20T11:56:17;3.13;;;1.10;;
55455;SDS011;63021;52.836;6.376;2023-07-20T11:58:45;1.75;;;0.75;;
55455;SDS011;63021;52.836;6.376;2023-07-20T12:01:12;1.73;;;0.85;;
55455;SDS011;63021;52.836;6.376;2023-07-20T12:03:38;1.65;;;1.17;;
55455;SDS011;63021;52.836;6.376;2023-07-20T12:06:07;2.88;;;0.98;;
55455;SDS011;63021;52.836;6.376;2023-07-20T12:08:33;2.13;;;1.10;;
55455;SDS011;63021;52.836;6.376;2023-07-20T12:10:59;2.88;;;1.00;;
55455;SDS011;63021;52.836;6.376;2023-07-20T12:13:46;1.60;;;0.75;;
55455;SDS011;63021;52.836;6.376;2023-07-20T12:16:14;2.15;;;0.93;;
55455;SDS011;63021;52.836;6.376;2023-07-20T12:18:41;3.80;;;0.90;;
55455;SDS011;63021;52.836;6.376;2023-07-20T12:21:07;4.30;;;1.10;;
55455;SDS011;63021;52.836;6.376;2023-07-20T12:23:37;2.70;;;1.20;;
55455;SDS011;63021;52.836;6.376;2023-07-20T12:26:06;1.10;;;0.73;;
55455;SDS011;63021;52.836;6.376;2023-07-20T12:28:41;3.63;;;0.90;;
55455;SDS011;63021;52.836;6.376;2023-07-20T12:31:09;1.13;;;0.60;;
55455;SDS011;63021;52.836;6.376;2023-07-20T12:33:36;2.70;;;1.52;;
55455;SDS011;63021;52.836;6.376;2023-07-20T12:36:04;2.22;;;0.90;;
55455;SDS011;63021;52.836;6.376;2023-07-20T12:38:30;1.40;;;0.75;;
55455;SDS011;63021;52.836;6.376;2023-07-20T12:41:00;2.33;;;1.27;;
55455;SDS011;63021;52.836;6.376;2023-07-20T12:43:29;1.75;;;0.95;;
55455;SDS011;63021;52.836;6.376;2023-07-20T12:45:55;2.83;;;0.90;;
55455;SDS011;63021;52.836;6.376;2023-07-20T12:48:21;1.60;;;0.82;;
55455;SDS011;63021;52.836;6.376;2023-07-20T12:50:47;2.45;;;1.00;;
55455;SDS011;63021;52.836;6.376;2023-07-20T12:53:12;2.13;;;0.80;;
55455;SDS011;63021;52.836;6.376;2023-07-20T12:55:39;1.67;;;0.75;;
55455;SDS011;63021;52.836;6.376;2023-07-20T12:58:07;0.88;;;0.70;;
55455;SDS011;63021;52.836;6.376;2023-07-20T13:00:33;0.55;;;0.55;;
55455;SDS011;63021;52.836;6.376;2023-07-20T13:02:58;0.93;;;0.68;;
55455;SDS011;63021;52.836;6.376;2023-07-20T13:05:24;1.45;;;0.90;;
55455;SDS011;63021;52.836;6.376;2023-07-20T13:07:49;2.05;;;0.70;;
55455;SDS011;63021;52.836;6.376;2023-07-20T13:10:17;1.95;;;0.77;;
55455;SDS011;63021;52.836;6.376;2023-07-20T13:12:45;1.88;;;0.82;;
55455;SDS011;63021;52.836;6.376;2023-07-20T13:15:10;2.08;;;0.73;;
55455;SDS011;63021;52.836;6.376;2023-07-20T13:17:38;3.80;;;0.75;;
55455;SDS011;63021;52.836;6.376;2023-07-20T13:20:04;0.85;;;0.70;;
55455;SDS011;63021;52.836;6.376;2023-07-20T13:22:32;0.93;;;0.60;;
55455;SDS011;63021;52.836;6.376;2023-07-20T13:24:58;0.70;;;0.70;;
55455;SDS011;63021;52.836;6.376;2023-07-20T13:27:23;1.58;;;0.93;;
55455;SDS011;63021;52.836;6.376;2023-07-20T13:29:50;0.77;;;0.70;;
55455;SDS011;63021;52.836;6.376;2023-07-20T13:32:16;1.83;;;0.65;;
55455;SDS011;63021;52.836;6.376;2023-07-20T13:34:51;0.50;;;0.50;;
55455;SDS011;63021;52.836;6.376;2023-07-20T13:37:17;2.42;;;0.60;;
55455;SDS011;63021;52.836;6.376;2023-07-20T13:39:42;0.98;;;0.60;;
55455;SDS011;63021;52.836;6.376;2023-07-20T13:42:08;1.00;;;0.57;;
55455;SDS011;63021;52.836;6.376;2023-07-20T13:44:36;0.77;;;0.65;;
55455;SDS011;63021;52.836;6.376;2023-07-20T13:47:02;1.40;;;0.50;;
55455;SDS011;63021;52.836;6.376;2023-07-20T13:49:30;1.25;;;0.60;;
55455;SDS011;63021;52.836;6.376;2023-07-20T13:51:56;2.53;;;0.93;;
55455;SDS011;63021;52.836;6.376;2023-07-20T13:54:22;0.95;;;0.55;;
55455;SDS011;63021;52.836;6.376;2023-07-20T13:56:48;0.57;;;0.43;;
55455;SDS011;63021;52.836;6.376;2023-07-20T13:59:13;1.38;;;0.60;;
55455;SDS011;63021;52.836;6.376;2023-07-20T14:01:39;1.02;;;0.60;;
55455;SDS011;63021;52.836;6.376;2023-07-20T14:04:04;0.50;;;0.50;;
55455;SDS011;63021;52.836;6.376;2023-07-20T14:06:30;1.30;;;0.50;;
55455;SDS011;63021;52.836;6.376;2023-07-20T14:08:57;0.65;;;0.52;;
55455;SDS011;63021;52.836;6.376;2023-07-20T14:11:22;0.90;;;0.50;;
55455;SDS011;63021;52.836;6.376;2023-07-20T14:13:49;0.82;;;0.60;;
55455;SDS011;63021;52.836;6.376;2023-07-20T14:16:15;1.20;;;0.50;;
55455;SDS011;63021;52.836;6.376;2023-07-20T14:18:41;0.57;;;0.40;;
55455;SDS011;63021;52.836;6.376;2023-07-20T14:21:07;0.47;;;0.47;;
55455;SDS011;63021;52.836;6.376;2023-07-20T14:23:33;0.52;;;0.52;;
55455;SDS011;63021;52.836;6.376;2023-07-20T14:25:58;0.95;;;0.40;;
55455;SDS011;63021;52.836;6.376;2023-07-20T14:28:24;1.35;;;0.50;;
55455;SDS011;63021;52.836;6.376;2023-07-20T14:30:49;0.93;;;0.38;;
55455;SDS011;63021;52.836;6.376;2023-07-20T14:33:15;1.63;;;0.70;;
55455;SDS011;63021;52.836;6.376;2023-07-20T14:35:40;1.30;;;0.50;;
55455;SDS011;63021;52.836;6.376;2023-07-20T14:38:05;1.15;;;0.40;;
55455;SDS011;63021;52.836;6.376;2023-07-20T14:40:31;1.50;;;0.75;;
55455;SDS011;63021;52.836;6.376;2023-07-20T14:42:56;1.17;;;0.57;;
55455;SDS011;63021;52.836;6.376;2023-07-20T14:45:21;1.15;;;0.50;;
55455;SDS011;63021;52.836;6.376;2023-07-20T14:47:47;0.60;;;0.43;;
55455;SDS011;63021;52.836;6.376;2023-07-20T14:50:18;1.98;;;0.73;;
55455;SDS011;63021;52.836;6.376;2023-07-20T14:52:44;2.88;;;0.60;;
55455;SDS011;63021;52.836;6.376;2023-07-20T14:55:10;0.88;;;0.52;;
55455;SDS011;63021;52.836;6.376;2023-07-20T14:57:36;0.98;;;0.50;;
55455;SDS011;63021;52.836;6.376;2023-07-20T15:00:01;0.47;;;0.45;;
55455;SDS011;63021;52.836;6.376;2023-07-20T15:02:31;1.60;;;0.65;;
55455;SDS011;63021;52.836;6.376;2023-07-20T15:04:57;2.28;;;0.50;;
55455;SDS011;63021;52.836;6.376;2023-07-20T15:07:23;1.05;;;0.80;;